sensor_id;sensor_type;location;lat;lon;timestamp;P1;durP1;ratioP1;P2;durP2;ratioP2
23418;SDS011;11882;42.522;27.458;2023-12-20T00:02:18;10.50;;;7.37;;
23418;SDS011;11882;42.522;27.458;2023-12-20T00:04:45;13.60;;;7.90;;
23418;SDS011;11882;42.522;27.458;2023-12-20T00:07:13;11.07;;;9.43;;
23418;SDS011;11882;42.522;27.458;2023-12-20T00:09:40;9.57;;;8.43;;
23418;SDS011;11882;42.522;27.458;2023-12-20T00:12:07;10.83;;;7.17;;
23418;SDS011;11882;42.522;27.458;2023-12-20T00:14:35;10.30;;;8.57;;
23418;SDS011;11882;42.522;27.458;2023-12-20T00:17:04;8.93;;;7.87;;
23418;SDS011;11882;42.522;27.458;2023-12-20T00:19:31;9.60;;;8.33;;
23418;SDS011;11882;42.522;27.458;2023-12-20T00:21:58;11.20;;;9.17;;
23418;SDS011;11882;42.522;27.458;2023-12-20T00:24:26;10.30;;;8.50;;
23418;SDS011;11882;42.522;27.458;2023-12-20T00:26:53;9.27;;;8.33;;
23418;SDS011;11882;42.522;27.458;2023-12-20T00:29:20;8.53;;;6.57;;
23418;SDS011;11882;42.522;27.458;2023-12-20T00:31:47;16.97;;;8.50;;
23418;SDS011;11882;42.522;27.458;2023-12-20T00:34:16;8.90;;;7.43;;
23418;SDS011;11882;42.522;27.458;2023-12-20T00:36:43;9.70;;;8.70;;
23418;SDS011;11882;42.522;27.458;2023-12-20T00:39:10;9.77;;;8.70;;
23418;SDS011;11882;42.522;27.458;2023-12-20T00:41:37;14.10;;;9.07;;
23418;SDS011;11882;42.522;27.458;2023-12-20T00:44:04;9.77;;;7.43;;
23418;SDS011;11882;42.522;27.458;2023-12-20T00:46:31;8.93;;;8.13;;
23418;SDS011;11882;42.522;27.458;2023-12-20T00:48:59;12.50;;;8.83;;
23418;SDS011;11882;42.522;27.458;2023-12-20T00:51:27;15.27;;;8.50;;
23418;SDS011;11882;42.522;27.458;2023-12-20T00:53:54;14.70;;;9.73;;
23418;SDS011;11882;42.522;27.458;2023-12-20T00:56:21;10.77;;;8.37;;
23418;SDS011;11882;42.522;27.458;2023-12-20T00:58:49;12.07;;;8.90;;
23418;SDS011;11882;42.522;27.458;2023-12-20T01:01:16;6.93;;;6.23;;
23418;SDS011;11882;42.522;27.458;2023-12-20T01:03:43;9.63;;;8.67;;
23418;SDS011;11882;42.522;27.458;2023-12-20T01:06:10;9.23;;;7.67;;
23418;SDS011;11882;42.522;27.458;2023-12-20T01:08:39;9.53;;;7.83;;
23418;SDS011;11882;42.522;27.458;2023-12-20T01:11:06;14.00;;;9.53;;
23418;SDS011;11882;42.522;27.458;2023-12-20T01:13:33;10.20;;;7.63;;
23418;SDS011;11882;42.522;27.458;2023-12-20T01:16:01;12.27;;;8.13;;
23418;SDS011;11882;42.522;27.458;2023-12-20T01:18:29;12.87;;;8.37;;
23418;SDS011;11882;42.522;27.458;2023-12-20T01:20:56;13.37;;;9.10;;
23418;SDS011;11882;42.522;27.458;2023-12-20T01:23:27;10.50;;;8.67;;
23418;SDS011;11882;42.522;27.458;2023-12-20T01:25:56;12.63;;;8.80;;
23418;SDS011;11882;42.522;27.458;2023-12-20T01:28:24;10.07;;;8.73;;
23418;SDS011;11882;42.522;27.458;2023-12-20T01:30:52;13.23;;;10.50;;
23418;SDS011;11882;42.522;27.458;2023-12-20T01:33:19;9.13;;;6.20;;
23418;SDS011;11882;42.522;27.458;2023-12-20T01:35:46;8.77;;;7.87;;
23418;SDS011;11882;42.522;27.458;2023-12-20T01:38:13;10.80;;;9.43;;
23418;SDS011;11882;42.522;27.458;2023-12-20T01:40:43;9.20;;;8.27;;
23418;SDS011;11882;42.522;27.458;2023-12-20T01:43:12;10.60;;;8.87;;
23418;SDS011;11882;42.522;27.458;2023-12-20T01:45:40;9.53;;;8.57;;
23418;SDS011;11882;42.522;27.458;2023-12-20T01:48:07;10.07;;;7.53;;
23418;SDS011;11882;42.522;27.458;2023-12-20T01:50:36;8.83;;;7.33;;
23418;SDS011;11882;42.522;27.458;2023-12-20T01:53:03;6.87;;;5.93;;
23418;SDS011;11882;42.522;27.458;2023-12-20T01:55:35;10.63;;;6.70;;
23418;SDS011;11882;42.522;27.458;2023-12-20T01:58:05;9.57;;;7.40;;
23418;SDS011;11882;42.522;27.458;2023-12-20T02:00:34;10.10;;;7.07;;
23418;SDS011;11882;42.522;27.458;2023-12-20T02:03:02;9.90;;;7.97;;
23418;SDS011;11882;42.522;27.458;2023-12-20T02:05:30;11.27;;;7.77;;
23418;SDS011;11882;42.522;27.458;2023-12-20T02:07:58;10.37;;;6.80;;
23418;SDS011;11882;42.522;27.458;2023-12-20T02:10:25;9.20;;;7.10;;
23418;SDS011;11882;42.522;27.458;2023-12-20T02:12:52;13.47;;;9.13;;
23418;SDS011;11882;42.522;27.458;2023-12-20T02:15:19;12.57;;;9.83;;
23418;SDS011;11882;42.522;27.458;2023-12-20T02:17:48;10.33;;;7.43;;
23418;SDS011;11882;42.522;27.458;2023-12-20T02:20:16;10.07;;;7.57;;
23418;SDS011;11882;42.522;27.458;2023-12-20T02:22:45;9.70;;;8.57;;
23418;SDS011;11882;42.522;27.458;2023-12-20T02:25:12;11.77;;;8.07;;
23418;SDS011;11882;42.522;27.458;2023-12-20T02:27:39;7.30;;;6.57;;
23418;SDS011;11882;42.522;27.458;2023-12-20T02:30:07;17.63;;;8.80;;
23418;SDS011;11882;42.522;27.458;2023-12-20T02:32:35;9.63;;;7.30;;
23418;SDS011;11882;42.522;27.458;2023-12-20T02:35:02;12.93;;;9.07;;
23418;SDS011;11882;42.522;27.458;2023-12-20T02:37:29;8.70;;;7.80;;
23418;SDS011;11882;42.522;27.458;2023-12-20T02:39:58;10.17;;;7.67;;
23418;SDS011;11882;42.522;27.458;2023-12-20T02:42:25;15.63;;;9.03;;
23418;SDS011;11882;42.522;27.458;2023-12-20T02:44:52;9.73;;;6.70;;
23418;SDS011;11882;42.522;27.458;2023-12-20T02:47:19;10.80;;;7.30;;
23418;SDS011;11882;42.522;27.458;2023-12-20T02:49:46;8.30;;;6.30;;
23418;SDS011;11882;42.522;27.458;2023-12-20T02:52:14;10.23;;;7.77;;
23418;SDS011;11882;42.522;27.458;2023-12-20T02:54:41;8.37;;;7.57;;
23418;SDS011;11882;42.522;27.458;2023-12-20T02:57:10;10.13;;;7.90;;
23418;SDS011;11882;42.522;27.458;2023-12-20T02:59:37;13.40;;;9.73;;
23418;SDS011;11882;42.522;27.458;2023-12-20T03:02:04;12.83;;;8.37;;
23418;SDS011;11882;42.522;27.458;2023-12-20T03:04:31;13.67;;;8.43;;
23418;SDS011;11882;42.522;27.458;2023-12-20T03:06:58;11.77;;;8.43;;
23418;SDS011;11882;42.522;27.458;2023-12-20T03:09:26;9.33;;;8.03;;
23418;SDS011;11882;42.522;27.458;2023-12-20T03:11:53;17.17;;;9.43;;
23418;SDS011;11882;42.522;27.458;2023-12-20T03:14:22;10.30;;;7.53;;
23418;SDS011;11882;42.522;27.458;2023-12-20T03:16:49;11.50;;;9.50;;
23418;SDS011;11882;42.522;27.458;2023-12-20T03:19:17;14.07;;;9.13;;
23418;SDS011;11882;42.522;27.458;2023-12-20T03:21:45;12.90;;;10.93;;
23418;SDS011;11882;42.522;27.458;2023-12-20T03:24:12;13.57;;;10.10;;
23418;SDS011;11882;42.522;27.458;2023-12-20T03:26:39;12.97;;;10.27;;
23418;SDS011;11882;42.522;27.458;2023-12-20T03:29:06;11.60;;;10.07;;
23418;SDS011;11882;42.522;27.458;2023-12-20T03:31:35;13.10;;;8.60;;
23418;SDS011;11882;42.522;27.458;2023-12-20T03:34:02;11.40;;;10.00;;
23418;SDS011;11882;42.522;27.458;2023-12-20T03:36:29;10.27;;;9.20;;
23418;SDS011;11882;42.522;27.458;2023-12-20T03:38:57;14.70;;;10.20;;
23418;SDS011;11882;42.522;27.458;2023-12-20T03:41:24;13.47;;;9.17;;
23418;SDS011;11882;42.522;27.458;2023-12-20T03:43:51;12.27;;;10.10;;
23418;SDS011;11882;42.522;27.458;2023-12-20T03:46:18;12.57;;;8.67;;
23418;SDS011;11882;42.522;27.458;2023-12-20T03:48:47;15.43;;;10.93;;
23418;SDS011;11882;42.522;27.458;2023-12-20T03:51:14;18.93;;;8.83;;
23418;SDS011;11882;42.522;27.458;2023-12-20T03:53:41;11.57;;;8.93;;
23418;SDS011;11882;42.522;27.458;2023-12-20T03:56:08;8.83;;;7.67;;
23418;SDS011;11882;42.522;27.458;2023-12-20T03:58:36;12.93;;;10.00;;
23418;SDS011;11882;42.522;27.458;2023-12-20T04:01:03;11.23;;;8.70;;
23418;SDS011;11882;42.522;27.458;2023-12-20T04:03:35;14.20;;;10.33;;
23418;SDS011;11882;42.522;27.458;2023-12-20T04:06:04;10.30;;;9.23;;
23418;SDS011;11882;42.522;27.458;2023-12-20T04:08:31;9.30;;;7.20;;
23418;SDS011;11882;42.522;27.458;2023-12-20T04:10:58;13.67;;;10.60;;
23418;SDS011;11882;42.522;27.458;2023-12-20T04:13:25;12.70;;;9.80;;
23418;SDS011;11882;42.522;27.458;2023-12-20T04:15:52;12.47;;;10.33;;
23418;SDS011;11882;42.522;27.458;2023-12-20T04:18:20;17.47;;;11.17;;
23418;SDS011;11882;42.522;27.458;2023-12-20T04:20:47;10.57;;;9.17;;
23418;SDS011;11882;42.522;27.458;2023-12-20T04:23:16;10.70;;;8.53;;
23418;SDS011;11882;42.522;27.458;2023-12-20T04:25:43;10.10;;;9.13;;
23418;SDS011;11882;42.522;27.458;2023-12-20T04:28:10;15.40;;;9.43;;
23418;SDS011;11882;42.522;27.458;2023-12-20T04:30:37;12.43;;;6.07;;
23418;SDS011;11882;42.522;27.458;2023-12-20T04:33:04;14.27;;;10.93;;
23418;SDS011;11882;42.522;27.458;2023-12-20T04:35:31;9.53;;;8.30;;
23418;SDS011;11882;42.522;27.458;2023-12-20T04:37:59;10.30;;;9.07;;
23418;SDS011;11882;42.522;27.458;2023-12-20T04:40:27;12.97;;;9.93;;
23418;SDS011;11882;42.522;27.458;2023-12-20T04:42:54;11.97;;;9.27;;
23418;SDS011;11882;42.522;27.458;2023-12-20T04:45:22;12.47;;;9.40;;
23418;SDS011;11882;42.522;27.458;2023-12-20T04:47:50;15.23;;;9.77;;
23418;SDS011;11882;42.522;27.458;2023-12-20T04:50:18;15.93;;;9.70;;
23418;SDS011;11882;42.522;27.458;2023-12-20T04:52:46;8.80;;;7.93;;
23418;SDS011;11882;42.522;27.458;2023-12-20T04:55:14;12.07;;;10.53;;
23418;SDS011;11882;42.522;27.458;2023-12-20T04:57:42;11.30;;;9.67;;
23418;SDS011;11882;42.522;27.458;2023-12-20T05:00:10;14.47;;;9.40;;
23418;SDS011;11882;42.522;27.458;2023-12-20T05:02:39;10.23;;;8.47;;
23418;SDS011;11882;42.522;27.458;2023-12-20T05:05:07;9.03;;;7.57;;
23418;SDS011;11882;42.522;27.458;2023-12-20T05:07:34;13.83;;;10.20;;
23418;SDS011;11882;42.522;27.458;2023-12-20T05:10:02;8.87;;;8.07;;
23418;SDS011;11882;42.522;27.458;2023-12-20T05:12:30;11.67;;;10.47;;
23418;SDS011;11882;42.522;27.458;2023-12-20T05:14:58;12.87;;;9.40;;
23418;SDS011;11882;42.522;27.458;2023-12-20T05:17:27;12.53;;;8.20;;
23418;SDS011;11882;42.522;27.458;2023-12-20T05:19:54;9.43;;;7.90;;
23418;SDS011;11882;42.522;27.458;2023-12-20T05:22:21;12.83;;;9.77;;
23418;SDS011;11882;42.522;27.458;2023-12-20T05:24:48;9.80;;;8.50;;
23418;SDS011;11882;42.522;27.458;2023-12-20T05:27:15;11.23;;;8.83;;
23418;SDS011;11882;42.522;27.458;2023-12-20T05:29:42;11.80;;;10.60;;
23418;SDS011;11882;42.522;27.458;2023-12-20T05:32:11;10.20;;;9.20;;
23418;SDS011;11882;42.522;27.458;2023-12-20T05:34:38;16.80;;;11.37;;
23418;SDS011;11882;42.522;27.458;2023-12-20T05:37:05;10.40;;;8.60;;
23418;SDS011;11882;42.522;27.458;2023-12-20T05:39:32;11.73;;;9.73;;
23418;SDS011;11882;42.522;27.458;2023-12-20T05:41:59;10.37;;;9.20;;
23418;SDS011;11882;42.522;27.458;2023-12-20T05:44:27;13.70;;;10.87;;
23418;SDS011;11882;42.522;27.458;2023-12-20T05:46:54;9.70;;;8.43;;
23418;SDS011;11882;42.522;27.458;2023-12-20T05:49:22;14.03;;;10.07;;
23418;SDS011;11882;42.522;27.458;2023-12-20T05:51:49;12.57;;;9.43;;
23418;SDS011;11882;42.522;27.458;2023-12-20T05:54:17;12.40;;;8.50;;
23418;SDS011;11882;42.522;27.458;2023-12-20T05:56:44;12.17;;;7.83;;
23418;SDS011;11882;42.522;27.458;2023-12-20T05:59:11;12.43;;;11.03;;
23418;SDS011;11882;42.522;27.458;2023-12-20T06:01:39;11.10;;;8.77;;
23418;SDS011;11882;42.522;27.458;2023-12-20T06:04:06;11.23;;;9.57;;
23418;SDS011;11882;42.522;27.458;2023-12-20T06:06:34;11.03;;;8.23;;
23418;SDS011;11882;42.522;27.458;2023-12-20T06:09:07;12.00;;;8.93;;
23418;SDS011;11882;42.522;27.458;2023-12-20T06:11:34;13.63;;;9.90;;
23418;SDS011;11882;42.522;27.458;2023-12-20T06:14:02;12.00;;;9.33;;
23418;SDS011;11882;42.522;27.458;2023-12-20T06:16:29;11.50;;;10.40;;
23418;SDS011;11882;42.522;27.458;2023-12-20T06:18:56;13.27;;;9.63;;
23418;SDS011;11882;42.522;27.458;2023-12-20T06:21:23;11.60;;;9.03;;
23418;SDS011;11882;42.522;27.458;2023-12-20T06:23:52;16.50;;;11.97;;
23418;SDS011;11882;42.522;27.458;2023-12-20T06:26:20;16.90;;;12.50;;
23418;SDS011;11882;42.522;27.458;2023-12-20T06:28:47;13.20;;;10.83;;
23418;SDS011;11882;42.522;27.458;2023-12-20T06:31:14;13.87;;;11.60;;
23418;SDS011;11882;42.522;27.458;2023-12-20T06:33:42;16.97;;;11.43;;
23418;SDS011;11882;42.522;27.458;2023-12-20T06:36:11;14.57;;;11.67;;
23418;SDS011;11882;42.522;27.458;2023-12-20T06:38:38;17.20;;;12.90;;
23418;SDS011;11882;42.522;27.458;2023-12-20T06:41:08;18.63;;;13.00;;
23418;SDS011;11882;42.522;27.458;2023-12-20T06:43:40;16.33;;;11.70;;
23418;SDS011;11882;42.522;27.458;2023-12-20T06:46:07;15.77;;;9.23;;
23418;SDS011;11882;42.522;27.458;2023-12-20T06:48:34;17.70;;;11.97;;
23418;SDS011;11882;42.522;27.458;2023-12-20T06:51:02;19.50;;;13.30;;
23418;SDS011;11882;42.522;27.458;2023-12-20T06:53:29;16.93;;;13.30;;
23418;SDS011;11882;42.522;27.458;2023-12-20T06:55:56;14.90;;;11.03;;
23418;SDS011;11882;42.522;27.458;2023-12-20T06:58:25;17.00;;;10.83;;
23418;SDS011;11882;42.522;27.458;2023-12-20T07:00:52;10.40;;;7.87;;
23418;SDS011;11882;42.522;27.458;2023-12-20T07:03:19;12.37;;;10.13;;
23418;SDS011;11882;42.522;27.458;2023-12-20T07:05:47;8.37;;;7.47;;
23418;SDS011;11882;42.522;27.458;2023-12-20T07:08:14;11.83;;;9.13;;
23418;SDS011;11882;42.522;27.458;2023-12-20T07:10:41;13.47;;;9.43;;
23418;SDS011;11882;42.522;27.458;2023-12-20T07:13:09;15.27;;;9.03;;
23418;SDS011;11882;42.522;27.458;2023-12-20T07:15:37;12.30;;;8.67;;
23418;SDS011;11882;42.522;27.458;2023-12-20T07:18:05;13.63;;;8.97;;
23418;SDS011;11882;42.522;27.458;2023-12-20T07:20:32;16.10;;;9.43;;
23418;SDS011;11882;42.522;27.458;2023-12-20T07:22:59;14.00;;;10.57;;
23418;SDS011;11882;42.522;27.458;2023-12-20T07:25:26;9.50;;;7.03;;
23418;SDS011;11882;42.522;27.458;2023-12-20T07:27:53;15.03;;;10.60;;
23418;SDS011;11882;42.522;27.458;2023-12-20T07:30:21;13.33;;;10.40;;
23418;SDS011;11882;42.522;27.458;2023-12-20T07:32:49;13.30;;;10.63;;
23418;SDS011;11882;42.522;27.458;2023-12-20T07:35:17;14.83;;;11.90;;
23418;SDS011;11882;42.522;27.458;2023-12-20T07:37:45;14.00;;;9.93;;
23418;SDS011;11882;42.522;27.458;2023-12-20T07:40:12;11.77;;;10.53;;
23418;SDS011;11882;42.522;27.458;2023-12-20T07:42:41;14.43;;;9.87;;
23418;SDS011;11882;42.522;27.458;2023-12-20T07:45:09;13.37;;;10.73;;
23418;SDS011;11882;42.522;27.458;2023-12-20T07:47:37;20.77;;;11.10;;
23418;SDS011;11882;42.522;27.458;2023-12-20T07:50:07;14.67;;;10.77;;
23418;SDS011;11882;42.522;27.458;2023-12-20T07:52:35;14.03;;;11.20;;
23418;SDS011;11882;42.522;27.458;2023-12-20T07:55:02;18.63;;;11.17;;
23418;SDS011;11882;42.522;27.458;2023-12-20T07:57:29;11.73;;;9.10;;
23418;SDS011;11882;42.522;27.458;2023-12-20T07:59:57;15.33;;;11.13;;
23418;SDS011;11882;42.522;27.458;2023-12-20T08:02:24;14.47;;;10.70;;
23418;SDS011;11882;42.522;27.458;2023-12-20T08:04:51;10.90;;;9.00;;
23418;SDS011;11882;42.522;27.458;2023-12-20T08:07:20;13.67;;;10.03;;
23418;SDS011;11882;42.522;27.458;2023-12-20T08:09:47;9.03;;;7.97;;
23418;SDS011;11882;42.522;27.458;2023-12-20T08:12:14;15.37;;;10.83;;
23418;SDS011;11882;42.522;27.458;2023-12-20T08:14:42;10.33;;;8.77;;
23418;SDS011;11882;42.522;27.458;2023-12-20T08:17:09;13.27;;;9.60;;
23418;SDS011;11882;42.522;27.458;2023-12-20T08:19:37;14.40;;;8.63;;
23418;SDS011;11882;42.522;27.458;2023-12-20T08:22:04;11.73;;;9.63;;
23418;SDS011;11882;42.522;27.458;2023-12-20T08:24:33;13.77;;;8.97;;
23418;SDS011;11882;42.522;27.458;2023-12-20T08:27:00;10.80;;;8.50;;
23418;SDS011;11882;42.522;27.458;2023-12-20T08:29:28;14.10;;;8.63;;
23418;SDS011;11882;42.522;27.458;2023-12-20T08:31:55;11.70;;;8.60;;
23418;SDS011;11882;42.522;27.458;2023-12-20T08:34:22;13.50;;;9.73;;
23418;SDS011;11882;42.522;27.458;2023-12-20T08:36:50;14.00;;;8.80;;
23418;SDS011;11882;42.522;27.458;2023-12-20T08:39:17;9.23;;;7.53;;
23418;SDS011;11882;42.522;27.458;2023-12-20T08:41:46;9.70;;;7.93;;
23418;SDS011;11882;42.522;27.458;2023-12-20T08:44:13;10.67;;;6.93;;
23418;SDS011;11882;42.522;27.458;2023-12-20T08:46:41;11.43;;;8.10;;
23418;SDS011;11882;42.522;27.458;2023-12-20T08:49:08;9.17;;;7.30;;
23418;SDS011;11882;42.522;27.458;2023-12-20T08:51:35;9.83;;;8.27;;
23418;SDS011;11882;42.522;27.458;2023-12-20T08:54:05;10.90;;;8.10;;
23418;SDS011;11882;42.522;27.458;2023-12-20T08:56:34;11.10;;;8.33;;
23418;SDS011;11882;42.522;27.458;2023-12-20T08:59:02;11.90;;;8.63;;
23418;SDS011;11882;42.522;27.458;2023-12-20T09:01:29;11.40;;;7.87;;
23418;SDS011;11882;42.522;27.458;2023-12-20T09:03:57;10.17;;;7.63;;
23418;SDS011;11882;42.522;27.458;2023-12-20T09:06:24;9.37;;;7.13;;
23418;SDS011;11882;42.522;27.458;2023-12-20T09:08:51;9.60;;;7.30;;
23418;SDS011;11882;42.522;27.458;2023-12-20T09:11:18;15.87;;;8.23;;
23418;SDS011;11882;42.522;27.458;2023-12-20T09:13:45;15.43;;;9.43;;
23418;SDS011;11882;42.522;27.458;2023-12-20T09:16:14;13.23;;;8.27;;
23418;SDS011;11882;42.522;27.458;2023-12-20T09:18:42;12.70;;;7.53;;
23418;SDS011;11882;42.522;27.458;2023-12-20T09:21:09;9.73;;;7.70;;
23418;SDS011;11882;42.522;27.458;2023-12-20T09:23:37;15.53;;;7.20;;
23418;SDS011;11882;42.522;27.458;2023-12-20T09:26:05;10.60;;;8.10;;
23418;SDS011;11882;42.522;27.458;2023-12-20T09:28:32;7.87;;;7.07;;
23418;SDS011;11882;42.522;27.458;2023-12-20T09:31:02;7.63;;;6.83;;
23418;SDS011;11882;42.522;27.458;2023-12-20T09:33:32;12.13;;;7.70;;
23418;SDS011;11882;42.522;27.458;2023-12-20T09:35:59;11.47;;;8.67;;
23418;SDS011;11882;42.522;27.458;2023-12-20T09:38:27;9.33;;;7.20;;
23418;SDS011;11882;42.522;27.458;2023-12-20T09:40:54;11.10;;;7.73;;
23418;SDS011;11882;42.522;27.458;2023-12-20T09:43:21;8.37;;;7.30;;
23418;SDS011;11882;42.522;27.458;2023-12-20T09:45:52;8.53;;;7.10;;
23418;SDS011;11882;42.522;27.458;2023-12-20T09:48:20;10.00;;;7.00;;
23418;SDS011;11882;42.522;27.458;2023-12-20T09:50:49;7.90;;;7.07;;
23418;SDS011;11882;42.522;27.458;2023-12-20T09:53:16;9.83;;;7.27;;
23418;SDS011;11882;42.522;27.458;2023-12-20T09:55:46;9.80;;;7.73;;
23418;SDS011;11882;42.522;27.458;2023-12-20T09:58:14;14.50;;;7.70;;
23418;SDS011;11882;42.522;27.458;2023-12-20T10:00:42;8.63;;;7.27;;
23418;SDS011;11882;42.522;27.458;2023-12-20T10:03:09;13.60;;;8.60;;
23418;SDS011;11882;42.522;27.458;2023-12-20T10:05:38;11.23;;;8.00;;
23418;SDS011;11882;42.522;27.458;2023-12-20T10:08:11;11.27;;;7.83;;
23418;SDS011;11882;42.522;27.458;2023-12-20T10:10:38;11.83;;;8.47;;
23418;SDS011;11882;42.522;27.458;2023-12-20T10:13:05;10.67;;;7.63;;
23418;SDS011;11882;42.522;27.458;2023-12-20T10:15:34;9.40;;;7.40;;
23418;SDS011;11882;42.522;27.458;2023-12-20T10:18:03;15.00;;;8.60;;
23418;SDS011;11882;42.522;27.458;2023-12-20T10:20:31;14.70;;;8.70;;
23418;SDS011;11882;42.522;27.458;2023-12-20T10:22:59;9.77;;;7.47;;
23418;SDS011;11882;42.522;27.458;2023-12-20T10:25:28;13.87;;;8.13;;
23418;SDS011;11882;42.522;27.458;2023-12-20T10:28:09;13.43;;;7.97;;
23418;SDS011;11882;42.522;27.458;2023-12-20T10:30:38;10.77;;;7.00;;
23418;SDS011;11882;42.522;27.458;2023-12-20T10:33:06;11.33;;;7.87;;
23418;SDS011;11882;42.522;27.458;2023-12-20T10:35:34;10.63;;;7.67;;
23418;SDS011;11882;42.522;27.458;2023-12-20T10:38:03;16.30;;;7.03;;
23418;SDS011;11882;42.522;27.458;2023-12-20T10:40:33;7.13;;;6.43;;
23418;SDS011;11882;42.522;27.458;2023-12-20T10:43:03;13.27;;;7.03;;
23418;SDS011;11882;42.522;27.458;2023-12-20T10:45:31;7.70;;;6.47;;
23418;SDS011;11882;42.522;27.458;2023-12-20T10:47:58;13.03;;;8.00;;
23418;SDS011;11882;42.522;27.458;2023-12-20T10:50:26;12.37;;;7.03;;
23418;SDS011;11882;42.522;27.458;2023-12-20T10:52:55;9.07;;;7.03;;
23418;SDS011;11882;42.522;27.458;2023-12-20T10:55:22;9.47;;;6.83;;
23418;SDS011;11882;42.522;27.458;2023-12-20T10:57:51;11.73;;;6.10;;
23418;SDS011;11882;42.522;27.458;2023-12-20T11:00:18;8.93;;;7.07;;
23418;SDS011;11882;42.522;27.458;2023-12-20T11:02:48;7.87;;;6.50;;
23418;SDS011;11882;42.522;27.458;2023-12-20T11:05:19;11.70;;;6.90;;
23418;SDS011;11882;42.522;27.458;2023-12-20T11:07:55;8.07;;;7.27;;
23418;SDS011;11882;42.522;27.458;2023-12-20T11:10:29;7.77;;;6.33;;
23418;SDS011;11882;42.522;27.458;2023-12-20T11:13:01;17.03;;;6.13;;
23418;SDS011;11882;42.522;27.458;2023-12-20T11:15:35;14.10;;;6.33;;
23418;SDS011;11882;42.522;27.458;2023-12-20T11:18:03;7.33;;;6.17;;
23418;SDS011;11882;42.522;27.458;2023-12-20T11:20:35;8.70;;;5.83;;
23418;SDS011;11882;42.522;27.458;2023-12-20T11:23:04;8.67;;;6.10;;
23418;SDS011;11882;42.522;27.458;2023-12-20T11:25:35;7.80;;;5.77;;
23418;SDS011;11882;42.522;27.458;2023-12-20T11:28:15;6.63;;;5.03;;
23418;SDS011;11882;42.522;27.458;2023-12-20T11:30:47;7.33;;;4.93;;
23418;SDS011;11882;42.522;27.458;2023-12-20T11:33:16;8.23;;;5.77;;
23418;SDS011;11882;42.522;27.458;2023-12-20T11:35:45;9.30;;;5.07;;
23418;SDS011;11882;42.522;27.458;2023-12-20T11:38:13;8.33;;;5.70;;
23418;SDS011;11882;42.522;27.458;2023-12-20T11:40:41;4.67;;;3.37;;
23418;SDS011;11882;42.522;27.458;2023-12-20T11:43:08;6.73;;;4.63;;
23418;SDS011;11882;42.522;27.458;2023-12-20T11:45:37;5.70;;;4.83;;
23418;SDS011;11882;42.522;27.458;2023-12-20T11:48:03;13.77;;;5.87;;
23418;SDS011;11882;42.522;27.458;2023-12-20T11:50:31;10.80;;;5.43;;
23418;SDS011;11882;42.522;27.458;2023-12-20T11:52:58;7.03;;;4.80;;
23418;SDS011;11882;42.522;27.458;2023-12-20T11:55:25;10.83;;;5.00;;
23418;SDS011;11882;42.522;27.458;2023-12-20T11:57:52;6.53;;;4.10;;
23418;SDS011;11882;42.522;27.458;2023-12-20T12:00:20;6.27;;;4.73;;
23418;SDS011;11882;42.522;27.458;2023-12-20T12:02:58;6.07;;;3.60;;
23418;SDS011;11882;42.522;27.458;2023-12-20T12:05:28;7.63;;;4.47;;
23418;SDS011;11882;42.522;27.458;2023-12-20T12:07:57;4.67;;;3.67;;
23418;SDS011;11882;42.522;27.458;2023-12-20T12:10:24;7.37;;;4.17;;
23418;SDS011;11882;42.522;27.458;2023-12-20T12:12:52;6.37;;;4.57;;
23418;SDS011;11882;42.522;27.458;2023-12-20T12:15:19;6.47;;;5.10;;
23418;SDS011;11882;42.522;27.458;2023-12-20T12:17:52;12.90;;;5.47;;
23418;SDS011;11882;42.522;27.458;2023-12-20T12:20:21;6.23;;;4.40;;
23418;SDS011;11882;42.522;27.458;2023-12-20T12:22:57;11.00;;;4.33;;
23418;SDS011;11882;42.522;27.458;2023-12-20T12:25:25;11.20;;;5.03;;
23418;SDS011;11882;42.522;27.458;2023-12-20T12:27:52;7.00;;;4.57;;
23418;SDS011;11882;42.522;27.458;2023-12-20T12:30:20;10.60;;;5.03;;
23418;SDS011;11882;42.522;27.458;2023-12-20T12:32:48;5.97;;;4.57;;
23418;SDS011;11882;42.522;27.458;2023-12-20T12:35:15;7.83;;;5.20;;
23418;SDS011;11882;42.522;27.458;2023-12-20T12:37:43;11.00;;;4.27;;
23418;SDS011;11882;42.522;27.458;2023-12-20T12:40:11;8.93;;;4.87;;
23418;SDS011;11882;42.522;27.458;2023-12-20T12:42:40;6.60;;;4.80;;
23418;SDS011;11882;42.522;27.458;2023-12-20T12:45:08;7.30;;;4.17;;
23418;SDS011;11882;42.522;27.458;2023-12-20T12:47:36;6.73;;;5.10;;
23418;SDS011;11882;42.522;27.458;2023-12-20T12:50:04;6.47;;;5.00;;
23418;SDS011;11882;42.522;27.458;2023-12-20T12:52:31;4.77;;;4.17;;
23418;SDS011;11882;42.522;27.458;2023-12-20T12:55:02;8.93;;;5.17;;
23418;SDS011;11882;42.522;27.458;2023-12-20T12:57:30;8.20;;;4.67;;
23418;SDS011;11882;42.522;27.458;2023-12-20T12:59:57;5.67;;;5.00;;
23418;SDS011;11882;42.522;27.458;2023-12-20T13:02:24;6.70;;;5.03;;
23418;SDS011;11882;42.522;27.458;2023-12-20T13:04:51;8.73;;;4.43;;
23418;SDS011;11882;42.522;27.458;2023-12-20T13:07:18;10.27;;;5.23;;
23418;SDS011;11882;42.522;27.458;2023-12-20T13:09:46;6.77;;;4.87;;
23418;SDS011;11882;42.522;27.458;2023-12-20T13:12:14;8.90;;;5.17;;
23418;SDS011;11882;42.522;27.458;2023-12-20T13:14:42;6.83;;;4.27;;
23418;SDS011;11882;42.522;27.458;2023-12-20T13:17:09;6.83;;;4.93;;
23418;SDS011;11882;42.522;27.458;2023-12-20T13:19:37;7.23;;;5.90;;
23418;SDS011;11882;42.522;27.458;2023-12-20T13:22:04;6.80;;;5.00;;
23418;SDS011;11882;42.522;27.458;2023-12-20T13:24:31;7.93;;;5.40;;
23418;SDS011;11882;42.522;27.458;2023-12-20T13:26:58;9.70;;;4.87;;
23418;SDS011;11882;42.522;27.458;2023-12-20T13:29:27;6.27;;;3.90;;
23418;SDS011;11882;42.522;27.458;2023-12-20T13:31:54;11.53;;;4.50;;
23418;SDS011;11882;42.522;27.458;2023-12-20T13:34:22;8.20;;;5.43;;
23418;SDS011;11882;42.522;27.458;2023-12-20T13:36:50;7.27;;;5.30;;
23418;SDS011;11882;42.522;27.458;2023-12-20T13:39:17;8.47;;;4.30;;
23418;SDS011;11882;42.522;27.458;2023-12-20T13:41:44;8.87;;;4.63;;
23418;SDS011;11882;42.522;27.458;2023-12-20T13:44:11;5.73;;;4.33;;
23418;SDS011;11882;42.522;27.458;2023-12-20T13:46:41;5.67;;;4.13;;
23418;SDS011;11882;42.522;27.458;2023-12-20T13:49:08;11.37;;;4.67;;
23418;SDS011;11882;42.522;27.458;2023-12-20T13:51:35;7.77;;;4.40;;
23418;SDS011;11882;42.522;27.458;2023-12-20T13:54:03;6.67;;;3.43;;
23418;SDS011;11882;42.522;27.458;2023-12-20T13:56:30;6.40;;;3.97;;
23418;SDS011;11882;42.522;27.458;2023-12-20T13:58:58;7.53;;;4.00;;
23418;SDS011;11882;42.522;27.458;2023-12-20T14:01:26;8.27;;;4.70;;
23418;SDS011;11882;42.522;27.458;2023-12-20T14:03:55;9.57;;;4.97;;
23418;SDS011;11882;42.522;27.458;2023-12-20T14:06:22;5.83;;;4.07;;
23418;SDS011;11882;42.522;27.458;2023-12-20T14:08:49;6.27;;;4.50;;
23418;SDS011;11882;42.522;27.458;2023-12-20T14:11:16;9.80;;;4.40;;
23418;SDS011;11882;42.522;27.458;2023-12-20T14:13:44;5.70;;;4.03;;
23418;SDS011;11882;42.522;27.458;2023-12-20T14:16:12;13.30;;;4.93;;
23418;SDS011;11882;42.522;27.458;2023-12-20T14:18:39;9.33;;;6.30;;
23418;SDS011;11882;42.522;27.458;2023-12-20T14:21:08;9.17;;;5.33;;
23418;SDS011;11882;42.522;27.458;2023-12-20T14:23:35;8.07;;;5.53;;
23418;SDS011;11882;42.522;27.458;2023-12-20T14:26:02;6.40;;;4.00;;
23418;SDS011;11882;42.522;27.458;2023-12-20T14:28:30;6.03;;;4.80;;